Time;durP1;ratioP1;P1;durP2;ratioP2;P2;SDS_P1;SDS_P2;PMS_P1;PMS_P2;Temp;Humidity;BMP_temperature;BMP_pressure;BME280_temperature;BME280_humidity;BME280_pressure;Samples;Min_cycle;Max_cycle;Signal;HPM_P1;HPM_P2
2021/09/07 00:01:56;;;;;;;13.68;6.70;;;;;;;;;;5025060;28;20610;-51
2021/09/07 00:04:29;;;;;;;9.77;5.85;;;;;;;;;;5032458;28;20117;-51
2021/09/07 00:06:55;;;;;;;11.70;6.22;;;;;;;;;;5024002;28;20064;-51
2021/09/07 00:09:21;;;;;;;15.68;6.47;;;;;;;;;;5024592;28;20069;-51
2021/09/07 00:11:47;;;;;;;13.57;5.90;;;;;;;;;;5022703;28;20022;-52
2021/09/07 00:14:13;;;;;;;14.57;6.13;;;;;;;;;;5024469;28;20021;-51
2021/09/07 00:16:39;;;;;;;8.32;5.53;;;;;;;;;;5023831;28;20014;-51
2021/09/07 00:19:05;;;;;;;11.07;6.22;;;;;;;;;;5032778;28;20079;-52
2021/09/07 00:21:31;;;;;;;10.68;5.93;;;;;;;;;;5027377;28;20482;-51
2021/09/07 00:23:57;;;;;;;14.02;5.80;;;;;;;;;;5023252;28;20030;-51
2021/09/07 00:26:23;;;;;;;13.07;6.40;;;;;;;;;;5023031;28;20033;-52
2021/09/07 00:28:49;;;;;;;15.45;6.53;;;;;;;;;;5024957;28;20025;-52
2021/09/07 00:31:15;;;;;;;13.27;5.88;;;;;;;;;;5023235;28;20412;-51
2021/09/07 00:33:41;;;;;;;13.20;6.78;;;;;;;;;;5028826;28;20037;-51
2021/09/07 00:36:07;;;;;;;10.32;5.70;;;;;;;;;;5027760;28;20053;-51
2021/09/07 00:38:33;;;;;;;13.18;6.20;;;;;;;;;;5024523;28;20029;-51
2021/09/07 00:40:59;;;;;;;11.85;6.30;;;;;;;;;;5023539;28;20435;-51
2021/09/07 00:43:25;;;;;;;11.80;7.18;;;;;;;;;;5022672;28;20083;-52
2021/09/07 00:45:51;;;;;;;17.25;6.05;;;;;;;;;;5023669;28;20034;-51
2021/09/07 00:48:17;;;;;;;12.20;6.25;;;;;;;;;;5027965;28;20036;-52
2021/09/07 00:50:43;;;;;;;16.95;6.25;;;;;;;;;;5029534;28;20045;-51
2021/09/07 00:53:09;;;;;;;12.32;5.93;;;;;;;;;;5022432;28;20022;-51
2021/09/07 00:55:35;;;;;;;12.82;6.15;;;;;;;;;;5023037;28;20028;-51
2021/09/07 00:58:03;;;;;;;13.82;6.25;;;;;;;;;;5024165;28;20018;-51
2021/09/07 01:00:29;;;;;;;12.55;6.70;;;;;;;;;;5022515;28;20026;-52
2021/09/07 01:02:55;;;;;;;12.82;5.97;;;;;;;;;;5027211;28;20037;-51
2021/09/07 01:05:22;;;;;;;11.05;6.05;;;;;;;;;;5029045;28;20037;-51
2021/09/07 01:07:48;;;;;;;12.95;6.60;;;;;;;;;;5022607;28;20084;-51
2021/09/07 01:10:14;;;;;;;14.45;6.20;;;;;;;;;;5022465;28;20030;-51
2021/09/07 01:12:40;;;;;;;12.35;6.32;;;;;;;;;;5023353;28;20044;-51
2021/09/07 01:15:07;;;;;;;10.90;6.05;;;;;;;;;;5023528;28;20539;-52
2021/09/07 01:17:33;;;;;;;11.30;5.55;;;;;;;;;;5026065;28;20030;-51
2021/09/07 01:19:59;;;;;;;10.80;6.05;;;;;;;;;;5027525;28;20104;-51
2021/09/07 01:22:25;;;;;;;10.18;6.18;;;;;;;;;;5013517;28;20468;-52
2021/09/07 01:24:51;;;;;;;12.80;6.20;;;;;;;;;;5012523;28;20451;-51
2021/09/07 01:27:21;;;;;;;11.38;6.32;;;;;;;;;;5013463;28;20052;-51
2021/09/07 01:29:48;;;;;;;13.20;6.45;;;;;;;;;;5013639;28;20124;-51
2021/09/07 01:32:14;;;;;;;10.90;5.95;;;;;;;;;;5014446;28;20112;-51
2021/09/07 01:34:40;;;;;;;11.57;6.03;;;;;;;;;;5031110;28;20492;-51
2021/09/07 01:37:07;;;;;;;13.52;5.93;;;;;;;;;;5033131;28;20025;-51
2021/09/07 01:39:32;;;;;;;11.68;6.10;;;;;;;;;;5033386;28;20025;-51
2021/09/07 01:42:00;;;;;;;10.68;6.18;;;;;;;;;;5038242;28;20028;-51
2021/09/07 01:44:26;;;;;;;15.43;5.95;;;;;;;;;;5052773;28;20020;-51
2021/09/07 01:46:52;;;;;;;14.65;6.50;;;;;;;;;;5052794;28;20032;-51
2021/09/07 01:49:18;;;;;;;26.92;7.07;;;;;;;;;;5031634;28;20045;-52
2021/09/07 01:51:45;;;;;;;12.60;6.03;;;;;;;;;;5032899;28;20041;-51
2021/09/07 01:54:12;;;;;;;14.43;5.78;;;;;;;;;;5032086;28;20029;-51
2021/09/07 01:56:40;;;;;;;13.90;6.68;;;;;;;;;;5032859;28;20045;-51
2021/09/07 01:59:06;;;;;;;14.20;6.22;;;;;;;;;;5032875;28;20092;-51
2021/09/07 02:01:32;;;;;;;10.68;6.05;;;;;;;;;;5032914;28;20029;-51
2021/09/07 02:03:58;;;;;;;12.13;6.20;;;;;;;;;;5031701;28;20053;-51
2021/09/07 02:06:24;;;;;;;9.35;5.43;;;;;;;;;;5029869;28;20037;-51
2021/09/07 02:08:50;;;;;;;14.27;6.38;;;;;;;;;;5032776;28;20332;-51
2021/09/07 02:11:16;;;;;;;13.70;7.22;;;;;;;;;;5032924;28;20099;-51
2021/09/07 02:13:42;;;;;;;10.38;5.43;;;;;;;;;;5032086;28;20100;-51
2021/09/07 02:16:08;;;;;;;12.15;6.10;;;;;;;;;;5032603;28;20033;-51
2021/09/07 02:18:34;;;;;;;15.23;6.20;;;;;;;;;;5032508;28;20806;-51
2021/09/07 02:21:00;;;;;;;12.43;5.97;;;;;;;;;;5031393;28;20025;-51
2021/09/07 02:23:26;;;;;;;15.18;6.65;;;;;;;;;;5032465;28;20040;-51
2021/09/07 02:25:52;;;;;;;10.80;6.00;;;;;;;;;;5031898;28;20032;-51
2021/09/07 02:28:18;;;;;;;11.60;5.82;;;;;;;;;;5032468;28;20060;-51
2021/09/07 02:30:44;;;;;;;10.10;5.55;;;;;;;;;;5031928;28;20054;-51
2021/09/07 02:33:10;;;;;;;12.88;5.50;;;;;;;;;;5031813;28;20028;-51
2021/09/07 02:35:36;;;;;;;13.73;6.68;;;;;;;;;;5030976;28;20036;-51
2021/09/07 02:38:03;;;;;;;14.93;6.47;;;;;;;;;;5028963;28;20028;-51
2021/09/07 02:40:29;;;;;;;10.55;5.82;;;;;;;;;;5030530;28;20033;-51
2021/09/07 02:42:55;;;;;;;11.25;6.22;;;;;;;;;;5032196;28;20346;-51
2021/09/07 02:45:21;;;;;;;15.57;6.90;;;;;;;;;;5031508;28;20030;-51
2021/09/07 02:47:47;;;;;;;13.60;6.43;;;;;;;;;;5032237;28;20075;-51
2021/09/07 02:50:14;;;;;;;21.02;6.72;;;;;;;;;;5031216;28;20096;-51
2021/09/07 02:52:41;;;;;;;13.35;6.55;;;;;;;;;;5031737;28;20091;-51
2021/09/07 02:55:07;;;;;;;9.93;5.75;;;;;;;;;;5031792;28;20036;-51
2021/09/07 02:57:33;;;;;;;13.27;6.10;;;;;;;;;;5032110;28;20030;-52
2021/09/07 02:59:59;;;;;;;10.77;5.90;;;;;;;;;;5033849;28;20029;-51
2021/09/07 03:02:26;;;;;;;10.27;5.72;;;;;;;;;;5035965;28;20036;-51
2021/09/07 03:04:52;;;;;;;12.57;6.53;;;;;;;;;;5034163;28;20029;-51
2021/09/07 03:07:18;;;;;;;12.48;5.95;;;;;;;;;;5033738;28;20021;-50
2021/09/07 03:09:44;;;;;;;17.50;7.05;;;;;;;;;;5035434;28;20455;-51
2021/09/07 03:12:10;;;;;;;12.25;5.90;;;;;;;;;;5036167;28;20029;-51
2021/09/07 03:14:37;;;;;;;11.27;6.00;;;;;;;;;;5034639;28;20026;-51
2021/09/07 03:17:03;;;;;;;11.40;5.82;;;;;;;;;;5036198;28;20112;-51
2021/09/07 03:19:29;;;;;;;13.27;5.90;;;;;;;;;;5035044;28;20110;-51
2021/09/07 03:21:55;;;;;;;13.57;5.90;;;;;;;;;;5034985;28;20112;-52
2021/09/07 03:24:21;;;;;;;10.27;5.30;;;;;;;;;;5034426;28;20521;-52
2021/09/07 03:26:47;;;;;;;10.25;5.97;;;;;;;;;;5035600;28;20021;-51
2021/09/07 03:29:13;;;;;;;12.50;6.00;;;;;;;;;;5035199;28;20080;-51
2021/09/07 03:31:39;;;;;;;15.57;6.30;;;;;;;;;;5035639;28;20037;-51
2021/09/07 03:34:05;;;;;;;13.15;6.40;;;;;;;;;;5034093;28;20021;-51
2021/09/07 03:36:31;;;;;;;13.73;6.18;;;;;;;;;;5034632;28;20040;-51
2021/09/07 03:38:57;;;;;;;11.63;6.32;;;;;;;;;;5035224;28;20017;-51
2021/09/07 03:41:23;;;;;;;11.10;6.38;;;;;;;;;;5035286;28;20087;-51
2021/09/07 03:43:49;;;;;;;12.00;6.05;;;;;;;;;;5034388;28;20112;-52
2021/09/07 03:46:15;;;;;;;11.95;5.90;;;;;;;;;;5035023;28;20088;-51
2021/09/07 03:48:41;;;;;;;14.75;6.40;;;;;;;;;;5034550;28;20520;-51
2021/09/07 03:51:07;;;;;;;17.17;6.22;;;;;;;;;;5033846;28;20049;-51
2021/09/07 03:53:34;;;;;;;16.42;6.85;;;;;;;;;;5034007;28;20090;-51
2021/09/07 03:56:00;;;;;;;12.75;6.32;;;;;;;;;;5035172;28;20025;-51
2021/09/07 03:58:26;;;;;;;10.52;5.88;;;;;;;;;;5034973;28;20021;-51
2021/09/07 04:00:52;;;;;;;10.85;5.78;;;;;;;;;;5034905;28;20117;-51
2021/09/07 04:03:18;;;;;;;13.68;5.45;;;;;;;;;;5034102;28;20165;-51
2021/09/07 04:05:45;;;;;;;9.48;5.57;;;;;;;;;;5031600;28;20065;-51
2021/09/07 04:08:11;;;;;;;12.70;6.38;;;;;;;;;;5035223;28;20208;-51
2021/09/07 04:10:37;;;;;;;12.77;5.72;;;;;;;;;;5034120;28;20044;-51
2021/09/07 04:13:04;;;;;;;10.02;6.03;;;;;;;;;;5034260;28;20198;-51
2021/09/07 04:15:30;;;;;;;13.77;6.35;;;;;;;;;;5033794;28;20018;-51
2021/09/07 04:17:56;;;;;;;11.45;5.53;;;;;;;;;;5034243;28;20112;-51
2021/09/07 04:20:22;;;;;;;11.68;6.88;;;;;;;;;;5034063;28;20386;-51
2021/09/07 04:22:48;;;;;;;12.98;6.53;;;;;;;;;;5033662;28;20108;-51
2021/09/07 04:25:14;;;;;;;14.68;6.22;;;;;;;;;;5033987;28;20036;-51
2021/09/07 04:27:40;;;;;;;18.27;5.80;;;;;;;;;;5034727;28;20021;-51
2021/09/07 04:30:07;;;;;;;12.82;6.70;;;;;;;;;;5034185;28;20366;-51
2021/09/07 04:32:33;;;;;;;17.75;7.13;;;;;;;;;;5034208;28;20037;-51
2021/09/07 04:34:59;;;;;;;11.85;6.10;;;;;;;;;;5032933;28;20029;-51
2021/09/07 04:37:25;;;;;;;14.57;6.40;;;;;;;;;;5033442;28;20018;-51
2021/09/07 04:39:51;;;;;;;15.55;6.65;;;;;;;;;;5034027;28;20055;-51
2021/09/07 04:42:17;;;;;;;13.27;6.88;;;;;;;;;;5034479;28;20072;-51
2021/09/07 04:44:43;;;;;;;17.17;7.22;;;;;;;;;;5033093;28;20430;-51
2021/09/07 04:47:09;;;;;;;14.65;6.95;;;;;;;;;;5033763;28;20017;-51
2021/09/07 04:49:36;;;;;;;19.98;6.47;;;;;;;;;;5033209;28;20033;-51
2021/09/07 04:52:02;;;;;;;12.82;6.45;;;;;;;;;;5032805;28;20044;-51
2021/09/07 04:54:28;;;;;;;17.85;6.20;;;;;;;;;;5033493;28;20147;-51
2021/09/07 04:56:54;;;;;;;11.75;6.25;;;;;;;;;;5034045;28;20063;-51
2021/09/07 04:59:20;;;;;;;11.63;6.07;;;;;;;;;;5033699;28;20022;-51
2021/09/07 05:01:46;;;;;;;14.32;6.13;;;;;;;;;;5033460;28;20025;-51
2021/09/07 05:04:12;;;;;;;15.95;7.50;;;;;;;;;;5032358;28;20021;-51
2021/09/07 05:06:38;;;;;;;11.95;6.18;;;;;;;;;;5030704;28;20040;-51
2021/09/07 05:09:04;;;;;;;14.88;6.00;;;;;;;;;;5033693;28;20045;-51
2021/09/07 05:11:30;;;;;;;10.23;6.22;;;;;;;;;;5033493;28;20112;-51
2021/09/07 05:13:56;;;;;;;13.25;6.95;;;;;;;;;;5032579;28;20029;-51
2021/09/07 05:16:22;;;;;;;10.82;6.18;;;;;;;;;;5033179;28;20075;-51
2021/09/07 05:18:48;;;;;;;10.45;6.20;;;;;;;;;;5033032;28;20037;-51
2021/09/07 05:21:14;;;;;;;12.65;6.68;;;;;;;;;;5024332;28;20116;-51
2021/09/07 05:23:41;;;;;;;13.13;6.45;;;;;;;;;;5032408;28;20071;-51
2021/09/07 05:26:07;;;;;;;15.70;6.30;;;;;;;;;;5033321;28;20112;-51
2021/09/07 05:28:33;;;;;;;10.82;6.32;;;;;;;;;;5032779;28;20337;-51
2021/09/07 05:30:59;;;;;;;14.43;6.25;;;;;;;;;;5032986;28;20045;-51
2021/09/07 05:33:26;;;;;;;15.00;7.00;;;;;;;;;;5033049;28;20036;-51
2021/09/07 05:35:52;;;;;;;14.38;7.00;;;;;;;;;;5032652;28;20028;-51
2021/09/07 05:38:19;;;;;;;16.75;7.07;;;;;;;;;;5032312;28;20057;-51
2021/09/07 05:40:45;;;;;;;12.20;6.13;;;;;;;;;;5033098;28;20109;-51
2021/09/07 05:43:11;;;;;;;12.55;6.20;;;;;;;;;;5032868;28;20022;-51
2021/09/07 05:45:37;;;;;;;10.65;6.07;;;;;;;;;;5031738;28;20451;-51
2021/09/07 05:48:03;;;;;;;11.80;6.25;;;;;;;;;;5033516;28;20055;-51
2021/09/07 05:50:29;;;;;;;14.65;5.95;;;;;;;;;;5031900;28;20485;-51
2021/09/07 05:52:55;;;;;;;15.13;6.70;;;;;;;;;;5032073;28;20164;-51
2021/09/07 05:55:21;;;;;;;10.75;6.05;;;;;;;;;;5032101;28;20022;-51
2021/09/07 05:57:48;;;;;;;16.13;6.82;;;;;;;;;;5032945;28;20029;-51
2021/09/07 06:00:15;;;;;;;13.70;7.00;;;;;;;;;;5033111;28;20164;-51
2021/09/07 06:02:41;;;;;;;12.50;6.18;;;;;;;;;;5032228;28;20025;-51
2021/09/07 06:05:08;;;;;;;9.80;5.57;;;;;;;;;;5031618;28;20142;-51
2021/09/07 06:07:34;;;;;;;12.90;6.38;;;;;;;;;;5022305;28;20129;-51
2021/09/07 06:10:00;;;;;;;14.35;6.70;;;;;;;;;;5032722;28;20128;-51
2021/09/07 06:12:26;;;;;;;16.40;7.25;;;;;;;;;;5032140;28;20364;-51
2021/09/07 06:14:52;;;;;;;11.60;5.97;;;;;;;;;;5032510;28;20033;-51
2021/09/07 06:17:18;;;;;;;13.35;5.88;;;;;;;;;;5032462;28;20029;-51
2021/09/07 06:19:44;;;;;;;9.45;5.70;;;;;;;;;;5032046;28;20116;-52
2021/09/07 06:22:10;;;;;;;14.80;7.05;;;;;;;;;;5031102;28;20072;-51
2021/09/07 06:24:37;;;;;;;10.18;5.53;;;;;;;;;;5031987;28;20018;-51
2021/09/07 06:27:03;;;;;;;11.45;5.70;;;;;;;;;;5032656;28;20021;-51
2021/09/07 06:29:29;;;;;;;13.25;6.30;;;;;;;;;;5032703;28;20057;-52
2021/09/07 06:31:55;;;;;;;11.73;6.20;;;;;;;;;;5032710;28;20443;-52
2021/09/07 06:34:24;;;;;;;13.38;6.63;;;;;;;;;;5032101;28;20029;-52
2021/09/07 06:36:50;;;;;;;12.80;6.72;;;;;;;;;;5035994;28;20025;-51
2021/09/07 06:39:16;;;;;;;12.55;6.18;;;;;;;;;;5035799;28;20068;-51
2021/09/07 06:41:42;;;;;;;15.27;6.50;;;;;;;;;;5036363;28;20056;-52
2021/09/07 06:44:08;;;;;;;16.50;6.30;;;;;;;;;;5035816;28;20359;-51
2021/09/07 06:46:34;;;;;;;13.45;6.57;;;;;;;;;;5036295;28;20083;-52
2021/09/07 06:49:00;;;;;;;12.55;6.65;;;;;;;;;;5035326;28;20079;-52
2021/09/07 06:51:26;;;;;;;11.80;6.15;;;;;;;;;;5035960;28;20036;-52
2021/09/07 06:53:52;;;;;;;11.77;5.90;;;;;;;;;;5034462;28;20053;-51
2021/09/07 06:56:18;;;;;;;11.82;6.05;;;;;;;;;;5036206;28;20087;-52
2021/09/07 06:58:44;;;;;;;14.32;6.45;;;;;;;;;;5035937;28;20029;-52
2021/09/07 07:01:10;;;;;;;13.00;5.80;;;;;;;;;;5036193;28;20032;-52
2021/09/07 07:03:36;;;;;;;12.68;6.28;;;;;;;;;;5034882;28;20057;-52
2021/09/07 07:06:02;;;;;;;16.52;6.60;;;;;;;;;;5034517;28;20026;-52
2021/09/07 07:08:28;;;;;;;12.55;6.43;;;;;;;;;;5035226;28;20032;-51
2021/09/07 07:10:54;;;;;;;9.13;5.22;;;;;;;;;;5035813;28;20126;-52
2021/09/07 07:13:20;;;;;;;9.55;5.85;;;;;;;;;;5035679;28;20057;-51
2021/09/07 07:15:46;;;;;;;11.27;5.53;;;;;;;;;;5035086;28;20386;-52
2021/09/07 07:18:12;;;;;;;17.67;5.88;;;;;;;;;;5035613;28;20144;-52
2021/09/07 07:20:38;;;;;;;10.82;5.95;;;;;;;;;;5035115;28;20383;-52
2021/09/07 07:23:04;;;;;;;10.07;5.50;;;;;;;;;;5034401;28;20083;-51
2021/09/07 07:25:31;;;;;;;16.50;6.40;;;;;;;;;;5034907;28;20029;-51
2021/09/07 07:27:57;;;;;;;12.57;6.00;;;;;;;;;;5035504;28;20030;-52
2021/09/07 07:30:25;;;;;;;11.35;5.68;;;;;;;;;;5035298;28;20047;-52
2021/09/07 07:32:51;;;;;;;11.55;5.30;;;;;;;;;;5035453;28;20353;-52
2021/09/07 07:35:17;;;;;;;13.82;6.25;;;;;;;;;;5034018;28;20524;-51
2021/09/07 07:37:43;;;;;;;12.02;6.38;;;;;;;;;;5034478;28;20052;-52
2021/09/07 07:40:09;;;;;;;16.50;7.72;;;;;;;;;;5035504;28;20459;-51
2021/09/07 07:42:35;;;;;;;13.07;6.70;;;;;;;;;;5035243;28;20049;-52
2021/09/07 07:45:02;;;;;;;15.35;7.05;;;;;;;;;;5034388;28;20056;-51
2021/09/07 07:47:28;;;;;;;17.75;6.95;;;;;;;;;;5034979;28;20022;-52
2021/09/07 07:49:54;;;;;;;17.25;7.22;;;;;;;;;;5034672;28;20084;-52
2021/09/07 07:52:20;;;;;;;12.27;6.80;;;;;;;;;;5034057;28;20025;-52
2021/09/07 07:54:49;;;;;;;12.43;6.78;;;;;;;;;;5032888;28;20033;-52
2021/09/07 07:57:15;;;;;;;16.97;7.00;;;;;;;;;;5034091;28;20467;-51
2021/09/07 07:59:41;;;;;;;13.05;7.13;;;;;;;;;;5034838;28;20370;-51
2021/09/07 08:02:07;;;;;;;17.13;8.80;;;;;;;;;;5035187;28;20439;-51
2021/09/07 08:04:33;;;;;;;11.85;7.18;;;;;;;;;;5033609;28;20041;-52
2021/09/07 08:06:59;;;;;;;18.13;6.47;;;;;;;;;;5034509;28;20102;-52
2021/09/07 08:09:25;;;;;;;18.73;8.63;;;;;;;;;;5034130;28;20061;-52
2021/09/07 08:11:51;;;;;;;11.85;6.85;;;;;;;;;;5034598;28;20033;-52
2021/09/07 08:14:17;;;;;;;13.93;7.05;;;;;;;;;;5033848;28;20022;-52
2021/09/07 08:16:43;;;;;;;19.15;8.40;;;;;;;;;;5035268;28;20029;-52
2021/09/07 08:19:09;;;;;;;16.67;8.25;;;;;;;;;;5032375;28;20079;-52
2021/09/07 08:21:35;;;;;;;17.48;8.48;;;;;;;;;;5034185;28;20422;-51
2021/09/07 08:24:01;;;;;;;23.50;10.02;;;;;;;;;;5032949;28;20065;-52
2021/09/07 08:26:27;;;;;;;27.30;7.97;;;;;;;;;;5034588;28;20213;-52
2021/09/07 08:28:53;;;;;;;21.13;8.13;;;;;;;;;;5033833;28;20083;-52
2021/09/07 08:31:20;;;;;;;22.67;8.15;;;;;;;;;;5033348;28;20037;-51
2021/09/07 08:33:46;;;;;;;19.80;9.50;;;;;;;;;;5033187;28;20367;-51
2021/09/07 08:36:12;;;;;;;20.65;8.90;;;;;;;;;;5025012;28;20021;-52
2021/09/07 08:38:38;;;;;;;20.92;9.75;;;;;;;;;;5033292;28;20033;-52
2021/09/07 08:41:04;;;;;;;22.23;8.85;;;;;;;;;;5033092;28;20391;-51
2021/09/07 08:43:31;;;;;;;19.67;9.27;;;;;;;;;;5033149;28;20048;-52
2021/09/07 08:45:58;;;;;;;26.20;9.60;;;;;;;;;;5034082;28;20030;-51
2021/09/07 08:48:25;;;;;;;19.45;10.10;;;;;;;;;;5034281;28;20041;-52
2021/09/07 08:50:55;;;;;;;18.65;8.45;;;;;;;;;;5033451;28;20087;-51
2021/09/07 08:53:22;;;;;;;25.08;10.25;;;;;;;;;;5032397;28;20026;-51
2021/09/07 08:55:48;;;;;;;25.77;11.45;;;;;;;;;;5033278;28;20466;-51
2021/09/07 08:58:14;;;;;;;21.48;10.00;;;;;;;;;;5032862;28;20022;-51
2021/09/07 09:00:40;;;;;;;20.52;9.15;;;;;;;;;;5033740;28;20032;-51
2021/09/07 09:03:11;;;;;;;17.77;8.00;;;;;;;;;;5033482;28;20120;-52
2021/09/07 09:05:40;;;;;;;18.25;8.43;;;;;;;;;;5032520;28;20443;-51
2021/09/07 09:08:10;;;;;;;16.45;8.30;;;;;;;;;;5033568;28;20025;-52
2021/09/07 09:10:36;;;;;;;16.40;7.63;;;;;;;;;;5032788;28;20037;-52
2021/09/07 09:13:12;;;;;;;12.65;7.00;;;;;;;;;;5033413;28;20448;-52
2021/09/07 09:15:39;;;;;;;12.27;7.18;;;;;;;;;;5032901;28;20033;-51
2021/09/07 09:18:07;;;;;;;15.02;6.63;;;;;;;;;;5033500;28;20083;-51
2021/09/07 09:20:33;;;;;;;16.95;6.63;;;;;;;;;;5033019;28;20057;-51
2021/09/07 09:23:00;;;;;;;12.93;7.32;;;;;;;;;;5032898;28;20033;-51
2021/09/07 09:25:31;;;;;;;14.93;7.78;;;;;;;;;;5031646;28;20112;-50
2021/09/07 09:27:56;;;;;;;12.65;6.47;;;;;;;;;;5033152;28;20030;-50
2021/09/07 09:30:30;;;;;;;12.93;6.22;;;;;;;;;;5031251;28;20052;-51
2021/09/07 09:33:00;;;;;;;13.15;6.00;;;;;;;;;;5033124;28;20431;-50
2021/09/07 09:35:26;;;;;;;14.52;8.07;;;;;;;;;;5031694;28;20151;-50
2021/09/07 09:37:56;;;;;;;16.88;7.95;;;;;;;;;;5033029;28;20018;-50
2021/09/07 09:40:22;;;;;;;23.20;14.23;;;;;;;;;;5032589;28;20029;-50
2021/09/07 09:42:49;;;;;;;9.73;6.10;;;;;;;;;;5033350;28;20030;-50
2021/09/07 09:45:15;;;;;;;12.95;6.32;;;;;;;;;;5032340;28;20033;-50
2021/09/07 09:47:45;;;;;;;11.75;6.10;;;;;;;;;;5032845;28;20104;-50
2021/09/07 09:50:12;;;;;;;10.23;6.18;;;;;;;;;;5032405;28;20029;-50
2021/09/07 09:52:43;;;;;;;11.77;5.68;;;;;;;;;;5032533;28;20022;-50
2021/09/07 09:55:09;;;;;;;;;;;;;;;;;;5032036;28;20032;-50
2021/09/07 09:57:35;;;;;;;17.70;5.63;;;;;;;;;;5032919;28;19909;-50
2021/09/07 10:00:03;;;;;;;11.25;5.40;;;;;;;;;;5032573;28;20479;-54
2021/09/07 10:02:32;;;;;;;12.85;5.38;;;;;;;;;;5032644;28;20057;-50
2021/09/07 10:04:58;;;;;;;10.60;5.43;;;;;;;;;;5031534;28;20447;-50
2021/09/07 10:07:25;;;;;;;11.88;5.82;;;;;;;;;;5032448;28;20272;-50
2021/09/07 10:09:51;;;;;;;11.38;5.55;;;;;;;;;;5031046;28;20065;-50
2021/09/07 10:12:24;;;;;;;9.55;5.03;;;;;;;;;;5032831;28;20049;-50
2021/09/07 10:15:01;;;;;;;9.55;4.78;;;;;;;;;;5031405;28;20022;-50
2021/09/07 10:23:29;;;;;;;10.15;4.82;;;;;;;;;;5025055;28;20346;-50
2021/09/07 10:25:46;;;;;;;10.50;6.15;;;;;;;;;;5027612;28;20033;-50
2021/09/07 10:28:12;;;;;;;9.77;5.18;;;;;;;;;;5033066;28;20021;-50
2021/09/07 10:30:58;;;;;;;12.45;5.75;;;;;;;;;;5031072;28;20060;-50
2021/09/07 10:33:30;;;;;;;10.13;5.20;;;;;;;;;;5032674;28;20038;-50
2021/09/07 10:36:06;;;;;;;10.30;5.75;;;;;;;;;;5031720;28;20078;-50
2021/09/07 10:38:52;;;;;;;16.60;5.97;;;;;;;;;;5032357;28;20118;-50
2021/09/07 10:41:30;;;;;;;12.68;5.57;;;;;;;;;;5031464;28;20026;-50
2021/09/07 10:43:57;;;;;;;12.93;6.32;;;;;;;;;;5031794;28;20063;-50
2021/09/07 10:46:39;;;;;;;9.80;5.20;;;;;;;;;;5032111;28;20474;-50
2021/09/07 10:49:24;;;;;;;11.77;5.72;;;;;;;;;;5032216;28;20034;-50
2021/09/07 10:52:19;;;;;;;10.65;5.50;;;;;;;;;;5031294;28;20443;-50
2021/09/07 10:54:50;;;;;;;9.60;5.20;;;;;;;;;;5015484;28;20037;-50
2021/09/07 10:57:38;;;;;;;12.57;5.43;;;;;;;;;;5032763;28;20032;-52
2021/09/07 11:00:19;;;;;;;8.85;5.40;;;;;;;;;;5032178;28;20210;-52
2021/09/07 11:02:55;;;;;;;11.30;5.25;;;;;;;;;;5032518;28;20056;-52
2021/09/07 11:05:45;;;;;;;9.85;5.32;;;;;;;;;;5030735;28;20483;-52
2021/09/07 11:08:12;;;;;;;11.57;5.63;;;;;;;;;;5031851;28;20018;-52
2021/09/07 11:10:38;;;;;;;9.65;6.07;;;;;;;;;;5031237;28;20481;-52
2021/09/07 11:13:09;;;;;;;12.30;6.20;;;;;;;;;;5032464;28;20156;-52
2021/09/07 11:15:36;;;;;;;9.35;5.38;;;;;;;;;;5031083;28;20033;-53
2021/09/07 11:18:03;;;;;;;11.20;5.07;;;;;;;;;;5032301;28;20071;-52
2021/09/07 11:20:36;;;;;;;11.73;5.45;;;;;;;;;;5032587;28;20116;-52
2021/09/07 11:23:09;;;;;;;12.35;6.22;;;;;;;;;;5035417;28;20095;-52
2021/09/07 11:25:35;;;;;;;10.55;6.22;;;;;;;;;;5032832;28;20374;-49
2021/09/07 11:28:02;;;;;;;13.65;6.43;;;;;;;;;;5035379;28;20033;-49
2021/09/07 11:30:36;;;;;;;16.55;6.80;;;;;;;;;;5034932;28;20037;-49
2021/09/07 11:33:02;;;;;;;8.45;5.03;;;;;;;;;;5035271;28;20432;-49
2021/09/07 11:35:29;;;;;;;12.57;5.25;;;;;;;;;;5034132;28;20109;-49
2021/09/07 11:37:56;;;;;;;13.70;5.72;;;;;;;;;;5035318;28;20098;-49
2021/09/07 11:40:23;;;;;;;11.82;5.75;;;;;;;;;;5032232;28;20316;-49
2021/09/07 11:42:49;;;;;;;12.68;5.90;;;;;;;;;;5034649;28;20018;-49
2021/09/07 11:45:19;;;;;;;12.73;7.00;;;;;;;;;;5034733;28;20340;-49
2021/09/07 11:47:45;;;;;;;11.10;5.82;;;;;;;;;;5035317;28;20025;-49
2021/09/07 11:50:18;;;;;;;11.60;6.60;;;;;;;;;;5034998;28;20037;-49
2021/09/07 11:52:48;;;;;;;9.40;5.85;;;;;;;;;;5033493;28;20026;-49
2021/09/07 11:55:34;;;;;;;15.65;6.07;;;;;;;;;;5033767;28;20087;-49
2021/09/07 11:58:00;;;;;;;9.27;5.10;;;;;;;;;;5050234;28;20061;-49
2021/09/07 12:00:26;;;;;;;8.77;4.60;;;;;;;;;;5035136;28;20141;-49
2021/09/07 12:03:12;;;;;;;14.07;5.78;;;;;;;;;;5034781;28;20124;-49
2021/09/07 12:05:51;;;;;;;9.77;4.70;;;;;;;;;;5033959;28;20116;-49
2021/09/07 12:08:17;;;;;;;13.60;5.37;;;;;;;;;;5034616;28;20359;-49
2021/09/07 12:10:53;;;;;;;11.63;5.85;;;;;;;;;;5033376;28;20041;-49
2021/09/07 12:13:20;;;;;;;11.48;5.63;;;;;;;;;;5034928;28;20123;-49
2021/09/07 12:15:46;;;;;;;8.70;4.28;;;;;;;;;;5033492;28;20406;-49
2021/09/07 12:18:25;;;;;;;11.45;4.88;;;;;;;;;;5034629;28;20027;-49
2021/09/07 12:20:51;;;;;;;8.70;4.00;;;;;;;;;;5034247;28;20025;-49
2021/09/07 12:23:33;;;;;;;10.10;4.82;;;;;;;;;;5034618;28;20112;-50
2021/09/07 12:25:59;;;;;;;10.90;4.05;;;;;;;;;;5032749;28;20033;-49
2021/09/07 12:28:25;;;;;;;9.85;4.70;;;;;;;;;;5034806;28;20045;-49
2021/09/07 12:30:51;;;;;;;10.95;5.13;;;;;;;;;;5033995;28;20037;-49
2021/09/07 12:33:18;;;;;;;10.75;4.82;;;;;;;;;;5033738;28;20025;-49
2021/09/07 12:35:54;;;;;;;5.50;3.78;;;;;;;;;;5033214;28;20092;-49
2021/09/07 12:38:21;;;;;;;9.23;4.45;;;;;;;;;;5034029;28;20026;-50
2021/09/07 12:40:48;;;;;;;15.32;5.30;;;;;;;;;;5032621;28;20458;-49
2021/09/07 12:43:18;;;;;;;13.60;5.80;;;;;;;;;;5034625;28;20037;-49
2021/09/07 12:45:44;;;;;;;10.57;5.70;;;;;;;;;;5033280;28;20309;-49
2021/09/07 12:48:10;;;;;;;9.80;5.00;;;;;;;;;;5034215;28;20722;-49
2021/09/07 12:50:36;;;;;;;9.38;5.78;;;;;;;;;;5033513;28;20040;-49
2021/09/07 12:53:05;;;;;;;9.23;5.00;;;;;;;;;;5033843;28;20021;-49
2021/09/07 12:55:31;;;;;;;9.38;4.53;;;;;;;;;;5032662;28;20044;-49
2021/09/07 12:57:57;;;;;;;11.23;6.13;;;;;;;;;;5033293;28;20091;-49
2021/09/07 13:00:24;;;;;;;8.18;5.25;;;;;;;;;;5048479;28;20517;-49
2021/09/07 13:02:50;;;;;;;13.68;6.35;;;;;;;;;;5034299;28;20026;-49
2021/09/07 13:05:16;;;;;;;9.35;5.40;;;;;;;;;;5032343;28;20359;-49
2021/09/07 13:07:42;;;;;;;8.93;4.78;;;;;;;;;;5032383;28;20029;-49
2021/09/07 13:10:08;;;;;;;7.05;4.93;;;;;;;;;;5033273;28;20383;-49
2021/09/07 13:12:34;;;;;;;15.02;6.78;;;;;;;;;;5032171;28;20108;-49
2021/09/07 13:15:00;;;;;;;10.48;5.43;;;;;;;;;;5033139;28;20041;-50
2021/09/07 13:17:26;;;;;;;8.32;5.15;;;;;;;;;;5033067;28;20523;-49
2021/09/07 13:19:52;;;;;;;7.82;4.50;;;;;;;;;;5033438;28;20117;-49
2021/09/07 13:22:18;;;;;;;12.65;4.90;;;;;;;;;;5032603;28;20033;-49
2021/09/07 13:24:44;;;;;;;7.50;4.78;;;;;;;;;;5032557;28;20037;-49
2021/09/07 13:27:10;;;;;;;12.38;5.88;;;;;;;;;;5032645;28;20036;-49
2021/09/07 13:29:36;;;;;;;11.75;5.25;;;;;;;;;;5033072;28;20049;-50
2021/09/07 13:32:02;;;;;;;8.18;4.80;;;;;;;;;;5032593;28;20101;-49
2021/09/07 13:34:29;;;;;;;12.18;6.05;;;;;;;;;;5031954;28;20124;-50
2021/09/07 13:36:55;;;;;;;12.23;5.85;;;;;;;;;;5032130;28;20107;-49
2021/09/07 13:39:21;;;;;;;10.45;5.68;;;;;;;;;;5032833;28;20300;-50
2021/09/07 13:41:47;;;;;;;7.00;4.60;;;;;;;;;;5032112;28;20030;-50
2021/09/07 13:44:13;;;;;;;8.93;5.55;;;;;;;;;;5032221;28;20025;-49
2021/09/07 13:46:39;;;;;;;9.50;5.10;;;;;;;;;;5032988;28;20022;-49
2021/09/07 13:49:05;;;;;;;9.00;5.35;;;;;;;;;;5033422;28;20047;-49
2021/09/07 13:51:31;;;;;;;12.10;5.63;;;;;;;;;;5032191;28;20075;-49
2021/09/07 13:53:57;;;;;;;7.82;4.82;;;;;;;;;;5031707;28;20073;-49
2021/09/07 13:56:23;;;;;;;11.57;5.18;;;;;;;;;;5033149;28;20038;-49
2021/09/07 13:58:49;;;;;;;11.48;5.47;;;;;;;;;;5031842;28;20068;-50
2021/09/07 14:01:16;;;;;;;9.43;5.60;;;;;;;;;;5032601;28;20236;-49
2021/09/07 14:03:42;;;;;;;7.45;5.00;;;;;;;;;;5031614;28;20079;-49
2021/09/07 14:06:08;;;;;;;10.50;5.53;;;;;;;;;;5032063;28;20483;-49
2021/09/07 14:08:34;;;;;;;13.57;4.53;;;;;;;;;;5024711;28;20030;-50
2021/09/07 14:11:00;;;;;;;7.18;4.18;;;;;;;;;;5032365;28;20033;-49
2021/09/07 14:13:29;;;;;;;9.18;5.28;;;;;;;;;;5031456;28;20037;-57
2021/09/07 14:15:55;;;;;;;6.32;4.28;;;;;;;;;;5032690;28;20025;-52
2021/09/07 14:18:21;;;;;;;9.90;4.82;;;;;;;;;;5032496;28;20029;-52
2021/09/07 14:20:47;;;;;;;8.15;4.93;;;;;;;;;;5032113;28;20451;-53
2021/09/07 14:23:17;;;;;;;7.28;5.40;;;;;;;;;;5031883;28;20044;-52
2021/09/07 14:25:43;;;;;;;14.93;5.20;;;;;;;;;;5031949;28;20029;-52
2021/09/07 14:28:09;;;;;;;9.90;5.75;;;;;;;;;;5031611;28;20056;-52
2021/09/07 14:30:35;;;;;;;9.65;5.90;;;;;;;;;;5031510;28;20049;-52
2021/09/07 14:33:01;;;;;;;11.23;6.28;;;;;;;;;;5032508;28;20432;-52
2021/09/07 14:35:27;;;;;;;14.60;6.28;;;;;;;;;;5032154;28;20032;-52
2021/09/07 14:37:53;;;;;;;9.82;5.57;;;;;;;;;;5031948;28;20022;-52